Time;durP1;ratioP1;P1;durP2;ratioP2;P2;SDS_P1;SDS_P2;PMS_P1;PMS_P2;Temp;Humidity;BMP_temperature;BMP_pressure;BME280_temperature;BME280_humidity;BME280_pressure;Samples;Min_cycle;Max_cycle;Signal;HPM_P1;HPM_P2
2022/01/03 00:00:38;;;;;;;20.90;3.65;;;8.70;99.90;;;;;;4953264;28;20044;-70
2022/01/03 00:03:09;;;;;;;13.10;2.70;;;8.80;99.90;;;;;;4937311;29;20050;-69
2022/01/03 00:05:35;;;;;;;13.90;3.05;;;8.80;99.90;;;;;;4953277;29;20081;-70
2022/01/03 00:08:02;;;;;;;20.60;2.70;;;8.80;99.90;;;;;;4953506;28;20380;-70
2022/01/03 00:10:28;;;;;;;13.70;3.08;;;8.90;99.90;;;;;;4953187;28;20494;-69
2022/01/03 00:12:54;;;;;;;14.60;2.60;;;8.90;99.90;;;;;;4953322;28;20081;-71
2022/01/03 00:15:20;;;;;;;14.48;3.03;;;8.90;99.90;;;;;;4936929;29;20610;-70
2022/01/03 00:17:48;;;;;;;14.82;3.45;;;8.90;99.90;;;;;;4985518;28;20051;-70
2022/01/03 00:20:14;;;;;;;16.02;2.38;;;8.90;99.90;;;;;;4959374;28;20394;-69
2022/01/03 00:22:50;;;;;;;23.27;2.90;;;8.90;99.90;;;;;;4973398;28;20053;-70
2022/01/03 00:25:19;;;;;;;13.18;4.03;;;8.80;99.90;;;;;;4959621;28;20049;-69
2022/01/03 00:27:50;;;;;;;19.48;4.03;;;8.80;99.90;;;;;;4991597;28;20099;-69
2022/01/03 00:30:19;;;;;;;19.50;3.08;;;8.80;99.90;;;;;;5007786;28;20050;-69
2022/01/03 00:32:47;;;;;;;14.02;2.92;;;8.70;99.90;;;;;;4979450;28;20521;-69
2022/01/03 00:35:16;;;;;;;15.43;2.70;;;8.70;99.90;;;;;;5011006;28;20057;-70
2022/01/03 00:37:45;;;;;;;12.13;2.90;;;8.70;99.90;;;;;;5011251;28;20048;-70
2022/01/03 00:40:17;;;;;;;23.27;4.63;;;8.70;99.90;;;;;;4994927;28;20041;-70
2022/01/03 00:42:44;;;;;;;19.38;3.25;;;8.70;99.90;;;;;;4994857;28;20034;-70
2022/01/03 00:45:10;;;;;;;19.20;4.32;;;8.70;99.90;;;;;;4993538;28;20049;-70
2022/01/03 00:47:37;;;;;;;13.45;3.25;;;8.70;99.90;;;;;;5027398;28;20182;-69
2022/01/03 00:50:11;;;;;;;25.00;3.17;;;8.70;99.90;;;;;;4994606;28;20159;-69
2022/01/03 00:52:38;;;;;;;19.73;3.65;;;8.70;99.90;;;;;;4992439;28;20121;-69
2022/01/03 00:55:06;;;;;;;15.82;2.95;;;8.70;99.90;;;;;;4994428;28;20046;-70
2022/01/03 00:57:32;;;;;;;18.75;5.65;;;8.70;99.90;;;;;;5027477;28;20034;-69
2022/01/03 01:00:05;;;;;;;19.23;3.70;;;8.70;99.90;;;;;;5027408;28;20561;-70
2022/01/03 01:02:38;;;;;;;17.33;3.50;;;8.70;99.90;;;;;;5010748;28;20474;-69
2022/01/03 01:05:06;;;;;;;19.48;4.50;;;8.70;99.90;;;;;;5027033;28;20489;-69
2022/01/03 01:07:33;;;;;;;19.70;3.40;;;8.80;99.90;;;;;;5010896;28;20421;-69
2022/01/03 01:10:04;;;;;;;14.95;3.58;;;8.80;99.90;;;;;;4994341;28;20042;-69
2022/01/03 01:12:31;;;;;;;25.33;4.10;;;8.80;99.90;;;;;;4994319;28;20073;-69
2022/01/03 01:14:57;;;;;;;23.05;3.53;;;8.80;99.90;;;;;;5010394;28;20046;-69
2022/01/03 01:17:27;;;;;;;27.13;4.90;;;8.80;99.90;;;;;;5010387;28;20044;-69
2022/01/03 01:19:56;;;;;;;19.93;2.87;;;8.90;99.90;;;;;;4994005;28;20045;-69
2022/01/03 01:22:22;;;;;;;14.45;3.28;;;8.90;99.90;;;;;;4991968;28;20791;-70
2022/01/03 01:25:11;;;;;;;16.38;3.35;;;8.90;99.90;;;;;;4993936;28;20050;-70
2022/01/03 01:27:49;;;;;;;18.73;4.15;;;8.90;99.90;;;;;;5026780;28;20045;-70
2022/01/03 01:30:17;;;;;;;18.13;4.38;;;8.90;99.90;;;;;;5026667;28;20512;-70
2022/01/03 01:32:54;;;;;;;16.48;3.00;;;8.90;99.90;;;;;;4974070;28;20050;-71
2022/01/03 01:35:24;;;;;;;17.10;3.65;;;8.90;99.90;;;;;;5006921;28;20041;-69
2022/01/03 01:37:54;;;;;;;22.85;3.53;;;9.00;99.90;;;;;;4974243;28;20043;-70
2022/01/03 01:40:23;;;;;;;14.52;3.17;;;8.90;99.90;;;;;;5006887;28;20125;-70
2022/01/03 01:42:49;;;;;;;20.48;3.70;;;8.90;99.90;;;;;;4958399;28;20091;-69
2022/01/03 01:45:19;;;;;;;22.75;3.08;;;8.90;99.90;;;;;;4974435;28;20417;-70
2022/01/03 01:47:48;;;;;;;15.85;3.45;;;8.90;99.90;;;;;;5006636;28;20050;-69
2022/01/03 01:50:15;;;;;;;16.77;3.38;;;8.90;99.90;;;;;;5006752;28;20074;-70
2022/01/03 01:52:45;;;;;;;12.88;3.00;;;8.90;99.90;;;;;;5004393;28;20053;-70
2022/01/03 01:55:14;;;;;;;16.77;3.75;;;8.80;99.90;;;;;;4958263;28;20410;-70
2022/01/03 01:58:05;;;;;;;18.42;3.30;;;8.90;99.90;;;;;;4973492;28;20612;-70
2022/01/03 02:00:33;;;;;;;27.02;3.33;;;8.90;99.90;;;;;;5006551;28;20074;-70
2022/01/03 02:03:23;;;;;;;16.27;3.05;;;8.90;99.90;;;;;;5006678;28;20051;-69
2022/01/03 02:06:07;;;;;;;22.17;3.63;;;8.90;99.90;;;;;;4957888;28;20106;-69
2022/01/03 02:08:39;;;;;;;24.25;3.83;;;8.80;99.90;;;;;;4990078;28;20129;-70
2022/01/03 02:11:28;;;;;;;18.38;3.90;;;8.80;99.90;;;;;;4990034;28;20038;-70
2022/01/03 02:13:55;;;;;;;19.70;3.95;;;8.70;99.90;;;;;;4990280;28;20052;-70
2022/01/03 02:16:21;;;;;;;24.52;5.25;;;8.70;99.90;;;;;;4973686;28;20050;-70
2022/01/03 02:18:47;;;;;;;21.90;3.88;;;8.70;99.90;;;;;;5006516;28;20034;-70
2022/01/03 02:21:14;;;;;;;22.63;3.50;;;8.60;99.90;;;;;;4973522;28;20499;-70
2022/01/03 02:23:40;;;;;;;24.05;4.18;;;8.60;99.90;;;;;;4971615;28;20049;-70
2022/01/03 02:26:06;;;;;;;16.20;2.85;;;8.50;99.90;;;;;;4973477;28;20046;-69
2022/01/03 02:28:31;;;;;;;19.15;4.88;;;8.60;99.90;;;;;;4973532;28;20050;-70
2022/01/03 02:30:57;;;;;;;18.70;3.53;;;8.60;99.90;;;;;;4957502;28;20125;-70
2022/01/03 02:33:23;;;;;;;17.77;3.85;;;8.60;99.90;;;;;;4999059;28;20068;-69
2022/01/03 02:35:49;;;;;;;16.40;3.88;;;8.60;99.90;;;;;;5009270;28;20422;-70
2022/01/03 02:38:15;;;;;;;19.23;3.53;;;8.50;99.90;;;;;;5025587;28;20042;-69
2022/01/03 02:40:41;;;;;;;27.83;4.55;;;8.50;99.90;;;;;;4993172;28;20125;-70
2022/01/03 02:43:07;;;;;;;18.90;3.30;;;8.50;99.90;;;;;;4976932;28;20045;-70
2022/01/03 02:45:33;;;;;;;24.13;4.97;;;8.50;99.90;;;;;;5009098;28;20402;-70
2022/01/03 02:48:07;;;;;;;20.77;4.13;;;8.50;99.90;;;;;;5025408;28;20060;-70
2022/01/03 02:50:34;;;;;;;18.85;4.63;;;8.50;99.90;;;;;;5009155;28;20697;-70
2022/01/03 02:53:01;;;;;;;18.73;3.25;;;8.40;99.90;;;;;;4990802;28;20042;-69
2022/01/03 02:55:27;;;;;;;24.08;3.72;;;8.40;99.90;;;;;;5009127;28;20382;-70
2022/01/03 02:57:58;;;;;;;20.85;5.20;;;8.40;99.90;;;;;;5025326;28;20548;-69
2022/01/03 03:00:27;;;;;;;21.83;4.43;;;8.50;99.90;;;;;;5025216;28;20126;-69
2022/01/03 03:02:53;;;;;;;18.08;4.30;;;8.50;99.90;;;;;;5009102;28;20042;-69
2022/01/03 03:05:19;;;;;;;19.30;4.28;;;8.50;99.90;;;;;;4992406;28;20402;-69
2022/01/03 03:07:46;;;;;;;21.00;3.67;;;8.50;99.90;;;;;;5008691;28;20050;-69
2022/01/03 03:10:15;;;;;;;24.52;3.25;;;8.50;99.90;;;;;;4995033;28;20045;-68
2022/01/03 03:12:41;;;;;;;20.35;4.00;;;8.50;99.90;;;;;;4996201;28;20038;-69
2022/01/03 03:15:09;;;;;;;22.98;4.18;;;8.40;99.90;;;;;;4995987;28;20394;-69
2022/01/03 03:17:36;;;;;;;21.95;3.80;;;8.50;99.90;;;;;;4995783;28;20044;-69
2022/01/03 03:20:09;;;;;;;17.50;3.35;;;8.50;99.90;;;;;;5028683;28;20042;-70
2022/01/03 03:22:36;;;;;;;21.40;3.88;;;8.50;99.90;;;;;;4993647;28;20050;-69
2022/01/03 03:25:12;;;;;;;17.95;3.67;;;8.50;99.90;;;;;;4995707;28;20046;-70
2022/01/03 03:27:43;;;;;;;27.80;5.30;;;8.50;99.90;;;;;;4995788;28;20099;-70
2022/01/03 03:30:15;;;;;;;16.05;4.00;;;8.50;99.90;;;;;;4995992;28;20052;-69
2022/01/03 03:32:43;;;;;;;22.55;4.45;;;8.50;99.90;;;;;;4992309;28;20100;-70
2022/01/03 03:35:11;;;;;;;25.73;5.18;;;8.50;99.90;;;;;;5008844;28;20054;-70
2022/01/03 03:37:37;;;;;;;30.52;5.00;;;8.50;99.90;;;;;;4976232;28;20125;-70
2022/01/03 03:40:04;;;;;;;17.67;4.22;;;8.50;99.90;;;;;;4976387;28;20146;-70
2022/01/03 03:42:30;;;;;;;25.65;4.03;;;8.60;99.90;;;;;;4976332;28;20046;-69
2022/01/03 03:44:55;;;;;;;18.33;3.85;;;8.60;99.90;;;;;;4976070;28;20387;-69
2022/01/03 03:47:21;;;;;;;18.65;3.70;;;8.70;99.90;;;;;;4992494;28;20046;-70
2022/01/03 03:49:47;;;;;;;27.58;4.78;;;8.70;99.90;;;;;;4976052;28;20061;-70
2022/01/03 03:52:13;;;;;;;22.98;4.47;;;8.70;99.90;;;;;;4973765;28;20103;-70
2022/01/03 03:54:39;;;;;;;27.63;5.80;;;8.60;99.90;;;;;;4975794;28;20082;-70
2022/01/03 03:57:08;;;;;;;26.13;4.78;;;8.60;99.90;;;;;;5008438;28;20039;-69
2022/01/03 03:59:34;;;;;;;26.27;5.57;;;8.50;99.90;;;;;;5008479;28;20129;-70
2022/01/03 04:02:00;;;;;;;24.52;4.18;;;8.50;99.90;;;;;;5008381;28;20042;-70
2022/01/03 04:04:26;;;;;;;26.55;5.13;;;8.40;99.90;;;;;;4975988;28;20034;-70
2022/01/03 04:06:52;;;;;;;24.90;5.25;;;8.40;99.90;;;;;;5008549;28;20046;-70
2022/01/03 04:09:18;;;;;;;22.02;5.15;;;8.40;99.90;;;;;;4975823;28;20046;-70
2022/01/03 04:11:43;;;;;;;22.65;4.15;;;8.40;99.90;;;;;;4959611;28;20104;-70
2022/01/03 04:14:09;;;;;;;23.85;4.32;;;8.50;99.90;;;;;;4975779;28;20172;-70
2022/01/03 04:16:36;;;;;;;27.55;4.75;;;8.50;99.90;;;;;;4959446;28;20065;-71
2022/01/03 04:19:03;;;;;;;29.17;5.70;;;8.50;99.90;;;;;;4975380;28;20248;-70
2022/01/03 04:21:29;;;;;;;29.65;5.00;;;8.50;99.90;;;;;;5007746;28;20099;-70
2022/01/03 04:23:55;;;;;;;21.50;4.78;;;8.50;99.90;;;;;;5005917;28;20133;-69
2022/01/03 04:26:22;;;;;;;19.77;4.35;;;8.60;99.90;;;;;;4975584;28;20046;-70
2022/01/03 04:28:48;;;;;;;30.10;6.05;;;8.60;99.90;;;;;;4991625;28;20394;-70
2022/01/03 04:31:14;;;;;;;23.08;4.72;;;8.60;99.90;;;;;;4975284;28;20474;-69
2022/01/03 04:33:40;;;;;;;24.40;5.13;;;8.70;99.90;;;;;;4986682;28;20046;-69
2022/01/03 04:36:07;;;;;;;22.45;4.82;;;8.70;99.90;;;;;;4994758;28;20129;-70
2022/01/03 04:38:33;;;;;;;33.03;5.20;;;8.60;99.90;;;;;;4994543;28;20042;-70
2022/01/03 04:41:01;;;;;;;27.27;5.45;;;8.60;99.90;;;;;;5010804;28;20041;-69
2022/01/03 04:43:27;;;;;;;25.10;5.30;;;8.60;99.90;;;;;;5027630;28;20073;-69
2022/01/03 04:45:55;;;;;;;28.90;7.30;;;8.60;99.90;;;;;;4994923;28;20406;-70
2022/01/03 04:48:22;;;;;;;35.20;5.90;;;8.60;99.90;;;;;;5027465;28;20099;-70
2022/01/03 04:50:49;;;;;;;25.92;4.97;;;8.60;99.90;;;;;;4994366;28;20050;-70
2022/01/03 04:53:15;;;;;;;24.35;5.13;;;8.50;99.90;;;;;;4992249;28;20045;-70
2022/01/03 04:55:41;;;;;;;25.38;4.55;;;8.60;99.90;;;;;;4994414;28;20382;-70
2022/01/03 04:58:09;;;;;;;28.08;5.50;;;8.50;99.90;;;;;;4994196;28;20049;-70
2022/01/03 05:00:36;;;;;;;26.75;6.15;;;8.60;99.90;;;;;;5027120;28;20120;-70
2022/01/03 05:03:03;;;;;;;25.83;5.63;;;8.60;99.90;;;;;;4994256;28;20416;-70
2022/01/03 05:05:28;;;;;;;30.08;5.70;;;8.60;99.90;;;;;;4994153;28;20129;-70
2022/01/03 05:07:54;;;;;;;26.02;4.38;;;8.60;99.90;;;;;;4994037;28;20132;-70
2022/01/03 05:10:20;;;;;;;30.20;4.55;;;8.60;99.90;;;;;;4994346;28;20049;-70
2022/01/03 05:12:46;;;;;;;25.13;5.13;;;8.60;99.90;;;;;;5010483;28;20601;-70
2022/01/03 05:15:11;;;;;;;23.63;5.03;;;8.50;99.90;;;;;;4993940;28;20050;-69
2022/01/03 05:17:37;;;;;;;30.60;6.40;;;8.60;99.90;;;;;;5010337;28;20034;-70
2022/01/03 05:20:04;;;;;;;20.30;5.32;;;8.50;99.90;;;;;;4993843;28;20124;-70
2022/01/03 05:22:29;;;;;;;24.88;5.53;;;8.50;99.90;;;;;;4992061;28;20250;-70
2022/01/03 05:24:55;;;;;;;27.52;4.75;;;8.50;99.90;;;;;;4993991;28;20521;-70
2022/01/03 05:27:21;;;;;;;32.53;6.07;;;8.60;99.90;;;;;;4993878;28;20084;-70
2022/01/03 05:29:47;;;;;;;29.85;5.53;;;8.50;99.90;;;;;;4993823;28;20046;-70
2022/01/03 05:32:13;;;;;;;31.25;6.13;;;8.50;99.90;;;;;;4992983;28;20057;-70
2022/01/03 05:34:38;;;;;;;29.67;5.18;;;8.40;99.90;;;;;;4990579;28;20046;-70
2022/01/03 05:37:04;;;;;;;29.75;5.43;;;8.50;99.90;;;;;;4974276;28;20044;-70
2022/01/03 05:39:30;;;;;;;25.77;4.57;;;8.50;99.90;;;;;;4974211;28;20038;-71
2022/01/03 05:41:56;;;;;;;31.02;5.30;;;8.50;99.90;;;;;;4974255;28;20035;-70
2022/01/03 05:44:22;;;;;;;30.42;5.72;;;8.50;99.90;;;;;;4974317;28;20091;-70
2022/01/03 05:46:47;;;;;;;32.35;5.97;;;8.50;99.90;;;;;;4974228;28;20074;-70
2022/01/03 05:49:13;;;;;;;29.80;5.35;;;8.50;99.90;;;;;;4974067;28;20038;-70
2022/01/03 05:51:40;;;;;;;20.30;4.90;;;8.40;99.90;;;;;;5006475;28;20042;-70
2022/01/03 05:54:08;;;;;;;24.35;4.90;;;8.40;99.90;;;;;;4971853;28;20034;-70
2022/01/03 05:56:34;;;;;;;21.38;4.55;;;8.40;99.90;;;;;;4973908;28;20528;-70
2022/01/03 05:59:01;;;;;;;28.90;6.03;;;8.40;99.90;;;;;;4973855;28;20038;-70
2022/01/03 06:01:28;;;;;;;26.73;4.57;;;8.30;99.90;;;;;;5006413;28;20050;-70
2022/01/03 06:04:01;;;;;;;25.75;6.07;;;8.30;99.90;;;;;;4957926;28;20371;-70
2022/01/03 06:07:16;;;;;;;25.67;5.53;;;8.30;99.90;;;;;;4974120;28;20396;-70
2022/01/03 06:09:17;;;;;;;28.02;5.35;;;8.30;99.90;;;;;;4977270;28;20053;-70
2022/01/03 06:11:44;;;;;;;29.77;5.28;;;8.30;99.90;;;;;;4990223;28;20406;-70
2022/01/03 06:14:10;;;;;;;27.13;5.20;;;8.30;99.90;;;;;;4990045;28;20124;-70
2022/01/03 06:16:35;;;;;;;24.70;4.85;;;8.30;99.90;;;;;;4973561;28;20555;-70
2022/01/03 06:19:01;;;;;;;33.38;8.00;;;8.30;99.90;;;;;;4973729;28;20045;-70
2022/01/03 06:21:28;;;;;;;27.33;5.07;;;8.30;99.90;;;;;;4970219;28;20055;-70
2022/01/03 06:23:54;;;;;;;35.58;5.00;;;8.30;99.90;;;;;;4984496;28;20488;-69
2022/01/03 06:26:20;;;;;;;31.00;5.43;;;8.30;99.90;;;;;;5002795;28;20130;-70
2022/01/03 06:28:45;;;;;;;25.25;5.32;;;8.30;99.90;;;;;;5002803;28;20188;-70
2022/01/03 06:31:11;;;;;;;27.40;5.88;;;8.20;99.90;;;;;;4986570;28;20054;-70
2022/01/03 06:33:37;;;;;;;26.95;6.18;;;8.20;99.90;;;;;;4981118;28;20058;-70
2022/01/03 06:36:03;;;;;;;29.55;5.40;;;8.30;99.90;;;;;;4989405;28;20045;-70
2022/01/03 06:38:30;;;;;;;37.42;7.10;;;8.30;99.90;;;;;;4989602;28;20176;-70
2022/01/03 06:41:09;;;;;;;23.13;4.82;;;8.30;99.90;;;;;;4989384;28;20050;-70
2022/01/03 06:43:35;;;;;;;29.10;5.95;;;8.30;99.90;;;;;;4989614;28;20100;-70
2022/01/03 06:46:02;;;;;;;38.65;7.70;;;8.30;99.90;;;;;;4989417;28;20046;-70
2022/01/03 06:48:28;;;;;;;27.98;5.45;;;8.20;99.90;;;;;;4973266;28;20057;-70
2022/01/03 06:50:55;;;;;;;33.30;5.53;;;8.20;99.90;;;;;;4989289;28;20051;-70
2022/01/03 06:53:21;;;;;;;38.67;6.68;;;8.30;99.90;;;;;;4987562;28;20042;-70
2022/01/03 06:55:47;;;;;;;23.08;6.53;;;8.30;99.90;;;;;;4989324;28;20503;-70
2022/01/03 06:58:13;;;;;;;27.05;4.47;;;8.30;99.90;;;;;;4989599;28;20129;-70
2022/01/03 07:00:38;;;;;;;29.52;5.80;;;8.30;99.90;;;;;;4989131;28;20548;-70
2022/01/03 07:03:06;;;;;;;28.23;4.55;;;8.40;99.90;;;;;;4989417;28;20103;-70
2022/01/03 07:05:32;;;;;;;32.15;6.00;;;8.40;99.90;;;;;;4989178;28;20086;-70
2022/01/03 07:07:59;;;;;;;28.83;5.80;;;8.40;99.90;;;;;;5022222;28;20111;-70
2022/01/03 07:10:25;;;;;;;26.33;5.85;;;8.50;99.90;;;;;;4989118;28;20043;-70
2022/01/03 07:12:53;;;;;;;27.17;5.25;;;8.50;99.90;;;;;;4989080;28;20125;-70
2022/01/03 07:20:53;;;;;;;30.48;5.65;;;8.50;99.90;;;;;;4980990;28;20252;-70
2022/01/03 07:23:21;;;;;;;36.33;5.35;;;8.60;99.90;;;;;;4967524;28;20047;-70
2022/01/03 07:25:48;;;;;;;28.88;6.07;;;8.70;99.90;;;;;;4969571;28;20057;-70
2022/01/03 07:28:15;;;;;;;27.63;5.53;;;8.70;99.90;;;;;;4969856;28;20508;-70
2022/01/03 07:30:41;;;;;;;27.33;5.68;;;8.70;99.90;;;;;;4953620;28;20101;-70
2022/01/03 07:33:08;;;;;;;31.33;6.15;;;8.70;99.90;;;;;;4962914;28;20505;-70
2022/01/03 07:35:35;;;;;;;34.97;5.22;;;8.70;99.90;;;;;;4950268;28;20353;-70
2022/01/03 07:38:02;;;;;;;29.70;5.30;;;8.70;99.90;;;;;;4950433;28;20042;-70
2022/01/03 07:40:30;;;;;;;32.30;6.95;;;8.80;99.90;;;;;;4950053;28;20043;-70
2022/01/03 07:42:56;;;;;;;28.20;6.03;;;8.80;99.90;;;;;;4950179;28;20039;-70
2022/01/03 07:45:22;;;;;;;26.33;6.30;;;8.80;99.90;;;;;;4949795;29;20047;-70
2022/01/03 07:47:48;;;;;;;26.98;5.15;;;8.80;99.90;;;;;;4950094;28;20043;-70
2022/01/03 07:50:15;;;;;;;28.35;5.03;;;8.80;99.90;;;;;;4949728;28;20050;-70
2022/01/03 07:52:41;;;;;;;22.83;5.25;;;8.80;99.90;;;;;;4947815;28;20063;-70
2022/01/03 07:55:09;;;;;;;22.05;4.90;;;8.90;99.90;;;;;;4954348;28;20039;-70
2022/01/03 07:57:36;;;;;;;22.20;4.93;;;8.90;99.90;;;;;;4972410;28;20096;-70
2022/01/03 08:00:05;;;;;;;28.35;5.03;;;8.90;99.90;;;;;;4956743;28;20035;-69
2022/01/03 08:02:30;;;;;;;28.13;5.00;;;8.90;99.90;;;;;;4972400;28;20086;-70
2022/01/03 08:04:56;;;;;;;24.27;4.95;;;8.90;99.90;;;;;;4972209;28;20082;-71
2022/01/03 08:07:22;;;;;;;24.45;4.03;;;8.90;99.90;;;;;;4972184;28;20053;-69
2022/01/03 08:09:48;;;;;;;22.95;6.57;;;9.00;99.90;;;;;;4972252;28;20047;-70
2022/01/03 08:12:14;;;;;;;20.35;5.28;;;8.90;99.90;;;;;;4972239;28;20175;-70
2022/01/03 08:14:39;;;;;;;20.23;6.00;;;9.00;99.90;;;;;;4972386;28;20047;-70
2022/01/03 08:17:05;;;;;;;26.50;5.32;;;9.00;99.90;;;;;;4972308;28;20544;-70
2022/01/03 08:19:31;;;;;;;23.30;5.10;;;9.00;99.90;;;;;;4956004;28;20043;-70
2022/01/03 08:21:57;;;;;;;21.17;4.03;;;9.10;99.90;;;;;;4988800;28;20196;-69
2022/01/03 08:24:23;;;;;;;30.40;5.65;;;9.10;99.90;;;;;;4973333;28;20129;-71
2022/01/03 08:26:49;;;;;;;29.10;6.72;;;9.10;99.90;;;;;;4991392;28;20516;-70
2022/01/03 08:29:15;;;;;;;36.03;6.65;;;9.10;99.90;;;;;;4991696;28;20050;-70
2022/01/03 08:31:41;;;;;;;22.58;4.60;;;9.10;99.90;;;;;;4991405;28;20615;-70
2022/01/03 08:34:07;;;;;;;24.75;4.30;;;9.10;99.90;;;;;;4976132;28;20167;-70
2022/01/03 08:36:34;;;;;;;32.45;4.70;;;9.10;99.90;;;;;;4981248;28;20055;-70
2022/01/03 08:39:00;;;;;;;23.98;5.13;;;9.20;99.90;;;;;;4968499;28;20046;-70
2022/01/03 08:41:26;;;;;;;28.55;4.60;;;9.20;99.90;;;;;;4991116;28;20078;-70
2022/01/03 08:43:52;;;;;;;23.67;5.70;;;9.20;99.90;;;;;;5073158;28;20276;-70
2022/01/03 08:46:19;;;;;;;29.30;5.57;;;9.30;99.90;;;;;;5073482;28;20041;-70
2022/01/03 08:48:45;;;;;;;27.75;5.00;;;9.30;99.90;;;;;;5057086;28;20369;-70
2022/01/03 08:51:11;;;;;;;25.08;4.05;;;9.30;99.90;;;;;;5073418;28;20177;-69
2022/01/03 08:53:37;;;;;;;26.08;4.70;;;9.30;99.90;;;;;;5071132;28;20062;-72
2022/01/03 08:56:04;;;;;;;20.42;4.60;;;9.30;99.90;;;;;;4952253;28;20047;-70
2022/01/03 08:58:30;;;;;;;31.40;5.18;;;9.40;99.90;;;;;;4952752;29;20074;-70
2022/01/03 09:00:56;;;;;;;25.85;4.82;;;9.40;99.90;;;;;;4952584;28;20039;-71
2022/01/03 09:03:22;;;;;;;32.10;3.72;;;9.40;99.90;;;;;;4952182;29;20101;-70
2022/01/03 09:05:54;;;;;;;27.92;5.00;;;9.40;99.90;;;;;;4952083;28;20043;-70
2022/01/03 09:08:22;;;;;;;20.00;4.05;;;9.40;99.90;;;;;;4951703;29;20130;-71
2022/01/03 09:10:49;;;;;;;26.63;4.90;;;9.40;99.90;;;;;;4962967;28;20519;-71
2022/01/03 09:13:15;;;;;;;29.73;6.57;;;9.50;99.90;;;;;;4971485;28;20145;-70
2022/01/03 09:15:44;;;;;;;26.98;4.47;;;9.60;99.90;;;;;;4955261;28;20122;-71
2022/01/03 09:18:18;;;;;;;23.70;4.90;;;9.60;99.90;;;;;;4971399;28;20073;-70
2022/01/03 09:20:45;;;;;;;26.98;4.75;;;9.80;99.90;;;;;;4978328;28;20103;-70
2022/01/03 09:23:20;;;;;;;25.77;4.20;;;10.10;99.90;;;;;;4972312;28;20049;-70
2022/01/03 09:28:52;;;;;;;22.10;4.68;;;10.60;99.90;;;;;;5023414;28;20123;-71
2022/01/03 09:31:27;;;;;;;26.83;5.55;;;10.80;99.90;;;;;;4990567;28;20038;-70
2022/01/03 09:33:58;;;;;;;30.10;5.10;;;10.90;99.90;;;;;;4990654;28;20073;-70
2022/01/03 09:36:25;;;;;;;25.85;5.13;;;11.10;99.90;;;;;;4974091;28;20045;-70
2022/01/03 09:38:51;;;;;;;26.45;5.32;;;11.20;99.90;;;;;;4990359;28;20046;-71
2022/01/03 09:41:23;;;;;;;25.65;4.55;;;11.40;99.90;;;;;;4990394;28;20043;-71
2022/01/03 09:44:04;;;;;;;26.30;5.35;;;11.60;99.90;;;;;;4990270;28;20620;-70
2022/01/03 09:46:38;;;;;;;22.23;5.32;;;11.70;99.90;;;;;;4974428;28;20045;-70
2022/01/03 09:49:08;;;;;;;20.20;4.50;;;11.90;99.90;;;;;;4990329;28;20497;-70
2022/01/03 09:51:34;;;;;;;25.80;4.43;;;12.10;99.90;;;;;;4990114;28;20046;-70
2022/01/03 09:54:04;;;;;;;22.50;5.68;;;12.30;99.90;;;;;;4971853;28;20068;-70
2022/01/03 09:56:31;;;;;;;27.38;5.40;;;12.50;99.90;;;;;;4990131;28;20064;-70
2022/01/03 09:59:00;;;;;;;20.85;5.85;;;12.70;99.90;;;;;;4990407;28;20122;-70
2022/01/03 10:01:27;;;;;;;22.98;5.13;;;12.90;99.90;;;;;;4990136;28;20121;-70
2022/01/03 10:03:53;;;;;;;21.13;5.05;;;13.20;99.90;;;;;;4973509;28;20597;-69
2022/01/03 10:06:20;;;;;;;17.65;4.40;;;12.90;99.90;;;;;;4990347;28;20099;-70
2022/01/03 10:08:47;;;;;;;33.20;5.45;;;12.60;99.90;;;;;;4989972;28;20076;-70
2022/01/03 10:11:14;;;;;;;29.80;5.68;;;12.50;99.90;;;;;;4990271;28;20096;-69
2022/01/03 10:13:41;;;;;;;23.38;6.05;;;12.70;99.90;;;;;;4989869;28;20167;-70
2022/01/03 10:16:08;;;;;;;22.42;5.15;;;13.00;99.90;;;;;;4989750;28;20053;-69
2022/01/03 10:18:34;;;;;;;27.92;6.38;;;12.90;99.90;;;;;;4973313;28;20456;-69
2022/01/03 10:21:04;;;;;;;23.25;4.85;;;12.70;99.90;;;;;;4988942;28;20556;-70
2022/01/03 10:23:30;;;;;;;;;;;12.30;99.90;;;;;;4987976;28;20042;-69
2022/01/03 10:26:17;;;;;;;22.13;4.60;;;12.00;99.90;;;;;;4989909;28;20017;-69
2022/01/03 10:28:43;;;;;;;21.98;4.63;;;12.10;99.90;;;;;;4989631;28;20046;-70
2022/01/03 10:31:21;;;;;;;20.15;5.25;;;12.30;99.90;;;;;;5023710;28;20075;-70
2022/01/03 10:34:08;;;;;;;18.80;4.50;;;12.60;99.90;;;;;;4991029;28;20047;-69
2022/01/03 10:36:36;;;;;;;30.98;5.60;;;13.00;99.90;;;;;;4981109;28;20047;-69
2022/01/03 10:39:13;;;;;;;25.83;4.53;;;13.40;99.90;;;;;;4989299;28;20035;-70
2022/01/03 10:41:39;;;;;;;23.80;4.97;;;13.60;99.90;;;;;;4970018;28;20078;-69
2022/01/03 10:44:08;;;;;;;20.83;4.43;;;13.80;99.90;;;;;;4970275;28;20078;-68
2022/01/03 10:46:35;;;;;;;17.98;4.57;;;13.90;99.90;;;;;;4970279;28;20398;-68
2022/01/03 10:49:16;;;;;;;19.45;4.13;;;14.00;99.90;;;;;;4970021;28;20049;-70
2022/01/03 10:51:42;;;;;;;17.60;4.10;;;14.10;99.90;;;;;;4970149;28;20141;-69
2022/01/03 10:54:10;;;;;;;20.73;4.68;;;14.10;99.90;;;;;;4967796;28;20046;-69
2022/01/03 10:56:39;;;;;;;22.30;5.57;;;14.10;99.90;;;;;;4953909;28;20043;-69
2022/01/03 10:59:14;;;;;;;16.02;5.00;;;14.30;99.90;;;;;;4970127;28;20065;-66
2022/01/03 11:01:41;;;;;;;23.17;4.60;;;14.60;99.90;;;;;;5001142;28;20045;-66
2022/01/03 11:04:09;;;;;;;26.15;4.88;;;14.60;99.90;;;;;;4954042;28;20165;-66
2022/01/03 11:11:58;;;;;;;23.33;5.18;;;14.10;99.90;;;;;;5050045;28;20106;-67
2022/01/03 11:14:41;;;;;;;20.45;4.18;;;14.20;99.90;;;;;;5071266;28;20056;-67
2022/01/03 11:17:28;;;;;;;18.30;5.20;;;14.40;99.90;;;;;;5071199;28;20048;-67
2022/01/03 11:19:57;;;;;;;23.90;5.57;;;14.50;99.90;;;;;;5055204;28;20044;-67
2022/01/03 11:22:42;;;;;;;17.23;3.70;;;14.50;99.90;;;;;;5092554;28;20036;-66
2022/01/03 11:25:09;;;;;;;23.55;4.78;;;14.10;99.90;;;;;;5094903;28;20039;-68
2022/01/03 11:27:38;;;;;;;15.95;4.00;;;13.50;99.90;;;;;;5094576;28;20101;-68
2022/01/03 11:30:06;;;;;;;19.48;4.18;;;13.00;99.90;;;;;;5068090;28;20043;-68
2022/01/03 11:32:34;;;;;;;21.13;4.95;;;12.80;99.90;;;;;;4980297;28;20053;-68
2022/01/03 11:35:01;;;;;;;20.67;4.18;;;13.00;99.90;;;;;;4979489;28;20038;-67
2022/01/03 11:37:32;;;;;;;17.00;4.75;;;13.40;99.90;;;;;;5028438;28;20458;-66
2022/01/03 11:40:04;;;;;;;13.07;4.13;;;13.60;99.90;;;;;;4995657;28;20038;-67
2022/01/03 11:42:33;;;;;;;19.85;4.35;;;13.50;99.90;;;;;;4995546;28;20174;-67
2022/01/03 11:44:59;;;;;;;23.35;4.38;;;13.50;99.90;;;;;;4995688;28;20060;-66
2022/01/03 11:47:29;;;;;;;17.20;4.32;;;13.20;99.90;;;;;;4995432;28;20120;-66
2022/01/03 11:49:55;;;;;;;19.40;4.43;;;13.00;99.90;;;;;;5011691;28;20046;-66
2022/01/03 11:52:22;;;;;;;24.25;4.07;;;13.20;99.90;;;;;;4993066;28;20110;-66
2022/01/03 11:54:51;;;;;;;13.38;3.90;;;13.40;99.90;;;;;;5027984;28;20042;-66
2022/01/03 11:57:29;;;;;;;22.10;3.90;;;13.50;99.90;;;;;;4995326;28;20478;-66
2022/01/03 12:05:53;;;;;;;21.65;5.35;;;13.80;99.90;;;;;;4995061;28;20053;-66
2022/01/03 12:08:25;;;;;;;13.23;3.58;;;14.00;99.90;;;;;;5028019;28;20098;-66
2022/01/03 12:10:51;;;;;;;24.35;5.05;;;14.10;99.90;;;;;;4995045;28;20078;-65
2022/01/03 12:13:19;;;;;;;21.48;4.22;;;14.10;99.90;;;;;;5011357;28;20497;-66
2022/01/03 12:15:45;;;;;;;17.27;4.00;;;14.20;99.90;;;;;;4994788;28;20646;-65
2022/01/03 12:18:31;;;;;;;21.38;5.22;;;14.10;99.90;;;;;;5011480;28;20037;-66
2022/01/03 12:20:57;;;;;;;20.88;5.50;;;14.00;99.90;;;;;;4994987;28;20383;-65
2022/01/03 12:23:41;;;;;;;24.73;4.85;;;13.80;99.90;;;;;;5025540;28;20079;-66
2022/01/03 12:26:09;;;;;;;15.93;4.38;;;13.60;99.90;;;;;;5027562;28;20048;-65
2022/01/03 12:29:05;;;;;;;20.63;4.65;;;13.40;99.90;;;;;;5011064;28;20046;-65
2022/01/03 12:32:02;;;;;;;26.15;4.75;;;13.10;99.90;;;;;;4994731;28;20056;-66
2022/01/03 12:34:28;;;;;;;20.73;3.70;;;12.80;99.90;;;;;;4978486;28;20578;-65
2022/01/03 12:37:24;;;;;;;22.45;3.65;;;12.50;99.90;;;;;;4994529;28;20406;-66
2022/01/03 12:40:05;;;;;;;24.38;4.75;;;12.30;99.90;;;;;;4994690;28;20614;-66
2022/01/03 12:42:50;;;;;;;20.75;3.80;;;12.10;99.90;;;;;;4994359;28;20061;-66
2022/01/03 12:45:36;;;;;;;23.83;4.68;;;12.00;99.90;;;;;;4994664;28;20084;-66
2022/01/03 12:48:11;;;;;;;20.02;4.10;;;11.90;99.90;;;;;;4994522;28;20095;-65
2022/01/03 12:50:40;;;;;;;17.23;4.13;;;11.90;99.90;;;;;;4994639;28;20037;-66
2022/01/03 12:53:11;;;;;;;29.63;5.47;;;11.90;99.90;;;;;;4992176;28;20042;-66
2022/01/03 12:55:41;;;;;;;21.70;4.43;;;11.80;99.90;;;;;;4991383;28;20049;-65
2022/01/03 12:58:19;;;;;;;26.95;5.18;;;11.60;99.90;;;;;;4994539;28;20053;-65
2022/01/03 13:00:48;;;;;;;19.63;4.30;;;11.50;99.90;;;;;;4978171;28;20091;-65
2022/01/03 13:03:43;;;;;;;26.15;4.93;;;11.30;99.90;;;;;;4994201;28;20042;-66
2022/01/03 13:06:12;;;;;;;26.98;5.72;;;11.20;99.90;;;;;;4994242;28;20129;-66
2022/01/03 13:08:43;;;;;;;23.45;4.53;;;11.20;99.90;;;;;;4994272;28;20077;-66
2022/01/03 13:11:11;;;;;;;20.00;5.07;;;11.20;99.90;;;;;;4978185;28;20049;-65
2022/01/03 13:13:39;;;;;;;26.92;4.93;;;11.20;99.90;;;;;;4994404;28;20397;-66